createdAt,value
2017-01-19T00:00:24.508Z,93.821
2017-01-19T00:03:17.275Z,93.279
2017-01-19T00:06:10.806Z,93.731
2017-01-19T00:09:02.680Z,94.335
2017-01-19T00:11:53.691Z,94.266
2017-01-19T00:14:47.082Z,93.326
2017-01-19T00:17:40.331Z,93.638
2017-01-19T00:20:35.829Z,93.158
2017-01-19T00:23:25.819Z,93.152
2017-01-19T00:26:18.539Z,93.074
2017-01-19T00:29:11.331Z,93.077
2017-01-19T00:32:04.980Z,93.200
2017-01-19T00:34:56.706Z,92.549
2017-01-19T00:37:50.038Z,92.693
2017-01-19T00:40:41.982Z,92.543
2017-01-19T00:43:34.853Z,92.766
2017-01-19T00:46:28.523Z,92.768
2017-01-19T00:49:22.024Z,92.780
2017-01-19T00:52:14.119Z,93.298
2017-01-19T00:55:05.922Z,92.939
2017-01-19T00:58:00.373Z,93.727
2017-01-19T01:00:53.079Z,93.772
2017-01-19T01:03:44.288Z,94.209
2017-01-19T01:06:36.989Z,94.125
2017-01-19T01:09:31.431Z,93.846
2017-01-19T01:12:22.483Z,93.875
2017-01-19T01:15:15.227Z,93.401
2017-01-19T01:18:09.628Z,93.550
2017-01-19T01:21:01.550Z,94.017
2017-01-19T01:23:55.029Z,93.133
2017-01-19T01:26:47.988Z,93.220
2017-01-19T01:29:40.624Z,93.288
2017-01-19T01:32:33.315Z,93.583
2017-01-19T01:35:26.143Z,93.405
2017-01-19T01:38:17.193Z,92.594
2017-01-19T01:41:11.589Z,92.790
2017-01-19T01:44:02.688Z,93.351
2017-01-19T01:49:49.971Z,93.716
2017-01-19T01:52:42.694Z,93.458
2017-01-19T01:55:35.458Z,92.538
2017-01-19T01:58:26.646Z,92.668
2017-01-19T02:01:21.059Z,93.183
2017-01-19T02:04:13.856Z,92.848
2017-01-19T02:07:06.584Z,93.143
2017-01-19T02:09:57.746Z,93.116
2017-01-19T02:12:51.388Z,92.154
2017-01-19T02:15:43.200Z,91.945
2017-01-19T02:18:37.594Z,92.241
2017-01-19T02:21:30.430Z,92.250
2017-01-19T02:24:21.519Z,92.955
2017-01-19T02:27:14.146Z,93.407
2017-01-19T02:30:07.022Z,93.290
2017-01-19T02:32:59.729Z,93.923
2017-01-19T02:35:54.498Z,92.971
2017-01-19T02:38:47.150Z,93.510
2017-01-19T02:41:40.048Z,93.202
2017-01-19T02:44:32.796Z,92.724
2017-01-19T02:47:25.563Z,92.804
2017-01-19T02:50:16.568Z,92.728
2017-01-19T02:53:09.324Z,92.887
2017-01-19T02:56:02.735Z,92.524
2017-01-19T02:58:55.378Z,92.848
2017-01-19T03:01:48.877Z,92.552
2017-01-19T03:04:42.633Z,92.424
2017-01-19T03:07:35.449Z,92.674
2017-01-19T03:10:26.529Z,92.792
2017-01-19T03:13:19.323Z,92.867
2017-01-19T03:16:12.020Z,93.019
2017-01-19T03:19:04.789Z,92.480
2017-01-19T03:21:57.494Z,93.250
2017-01-19T03:27:43.111Z,93.273
2017-01-19T03:30:37.491Z,93.409
2017-01-19T03:33:30.921Z,93.193
2017-01-19T03:36:22.820Z,92.873
2017-01-19T03:39:15.356Z,92.659
2017-01-19T03:42:07.418Z,93.276
2017-01-19T03:47:54.108Z,93.248
2017-01-19T03:50:46.810Z,93.144
2017-01-19T03:53:40.256Z,93.372
2017-01-19T03:56:32.585Z,93.181
2017-01-19T03:59:26.458Z,93.331
2017-01-19T04:02:19.317Z,93.202
2017-01-19T04:05:12.074Z,92.877
2017-01-19T04:08:04.773Z,93.098
2017-01-19T04:10:56.552Z,92.979
2017-01-19T04:13:49.294Z,93.744
2017-01-19T04:16:42.102Z,92.973
2017-01-19T04:19:34.985Z,93.267
2017-01-19T04:22:29.275Z,92.858
2017-01-19T04:25:22.167Z,93.082
2017-01-19T04:28:15.151Z,93.143
2017-01-19T04:31:06.070Z,92.760
2017-01-19T04:34:00.611Z,92.992
2017-01-19T04:36:51.679Z,93.340
2017-01-19T04:39:44.373Z,92.549
2017-01-19T04:42:37.132Z,92.849
2017-01-19T04:45:31.492Z,93.041
2017-01-19T04:48:22.562Z,92.674
2017-01-19T04:51:15.277Z,92.809
2017-01-19T04:54:09.647Z,92.431
2017-01-19T04:57:01.073Z,92.689
2017-01-19T04:59:54.766Z,93.000
2017-01-19T05:02:47.084Z,92.677
2017-01-19T05:05:39.549Z,94.010
2017-01-19T05:08:32.311Z,93.249
2017-01-19T05:11:25.117Z,93.342
2017-01-19T05:14:19.604Z,93.273
2017-01-19T05:17:12.674Z,93.501
2017-01-19T05:20:03.835Z,93.203
2017-01-19T05:25:49.900Z,93.174
2017-01-19T05:28:42.835Z,93.178
2017-01-19T05:31:35.591Z,93.334
2017-01-19T05:34:28.396Z,93.314
2017-01-19T05:37:22.713Z,92.984
2017-01-19T05:40:13.851Z,92.331
2017-01-19T05:43:06.656Z,92.903
2017-01-19T05:46:01.999Z,93.496
2017-01-19T05:48:51.973Z,92.788
2017-01-19T05:51:46.460Z,93.091
2017-01-19T05:54:39.249Z,93.292
2017-01-19T05:57:31.962Z,93.549
2017-01-19T06:00:23.021Z,93.596
2017-01-19T06:03:17.486Z,92.786
2017-01-19T06:06:08.997Z,92.849
2017-01-19T06:09:03.617Z,92.820
2017-01-19T06:11:54.585Z,92.427
2017-01-19T06:17:41.964Z,92.583
2017-01-19T06:20:32.818Z,93.015
2017-01-19T06:23:27.299Z,92.444
2017-01-19T06:26:18.304Z,92.766
2017-01-19T06:32:04.406Z,92.925
2017-01-19T06:34:56.387Z,92.915
2017-01-19T06:37:50.807Z,92.384
2017-01-19T06:40:44.393Z,92.908
2017-01-19T06:43:36.205Z,92.651
2017-01-19T06:46:28.264Z,92.262
2017-01-19T06:49:19.993Z,91.923
2017-01-19T06:52:13.593Z,92.954
2017-01-19T06:55:06.958Z,92.702
2017-01-19T06:57:58.047Z,92.994
2017-01-19T07:00:50.663Z,92.808
2017-01-19T07:03:45.123Z,92.452
2017-01-19T07:06:37.182Z,92.263
2017-01-19T07:09:30.499Z,92.645
2017-01-19T07:12:23.460Z,92.682
2017-01-19T07:15:16.149Z,92.695
2017-01-19T07:18:07.293Z,92.202
2017-01-19T07:20:59.922Z,92.497
2017-01-19T07:23:54.366Z,92.777
2017-01-19T07:29:38.053Z,92.737
2017-01-19T07:32:30.832Z,92.688
2017-01-19T07:35:25.274Z,92.246
2017-01-19T07:38:18.001Z,92.821
2017-01-19T07:41:09.659Z,92.543
2017-01-19T07:44:01.778Z,92.430
2017-01-19T07:46:54.622Z,92.447
2017-01-19T07:49:47.433Z,92.468
2017-01-19T07:52:41.829Z,92.310
2017-01-19T07:55:34.672Z,91.920
2017-01-19T07:58:27.404Z,92.030
2017-01-19T08:01:20.252Z,92.315
2017-01-19T08:04:11.868Z,91.632
2017-01-19T08:07:06.570Z,92.964
2017-01-19T08:09:58.352Z,92.756
2017-01-19T08:12:51.979Z,92.174
2017-01-19T08:15:43.825Z,92.262
2017-01-19T08:18:34.842Z,92.301
2017-01-19T08:21:28.269Z,92.249
2017-01-19T08:24:22.159Z,91.521
2017-01-19T08:27:13.281Z,91.715
2017-01-19T08:30:07.777Z,91.535
2017-01-19T08:32:59.073Z,91.638
2017-01-19T08:35:51.867Z,91.663
2017-01-19T08:38:46.733Z,91.914
2017-01-19T08:41:40.486Z,90.982
2017-01-19T08:44:30.498Z,91.721
2017-01-19T08:47:25.079Z,91.375
2017-01-19T08:50:16.082Z,91.181
2017-01-19T08:56:02.772Z,90.909
2017-01-19T08:58:56.078Z,91.197
2017-01-19T09:01:49.009Z,91.135
2017-01-19T09:04:41.800Z,90.741
2017-01-19T09:07:32.775Z,90.355
2017-01-19T09:10:26.525Z,90.486
2017-01-19T09:13:18.255Z,90.542
2017-01-19T09:16:10.985Z,90.308
2017-01-19T09:19:03.758Z,89.889
2017-01-19T09:21:58.330Z,89.589
2017-01-19T09:24:49.276Z,90.274
2017-01-19T09:27:41.978Z,89.901
2017-01-19T09:30:36.294Z,89.911
2017-01-19T09:33:29.047Z,89.337
2017-01-19T09:36:22.840Z,89.705
2017-01-19T09:39:12.919Z,89.715
2017-01-19T09:42:05.685Z,89.529
2017-01-19T09:44:59.119Z,89.621
2017-01-19T09:47:51.136Z,89.716
2017-01-19T09:50:43.988Z,89.018
2017-01-19T09:53:39.303Z,88.772
2017-01-19T09:56:32.088Z,88.483
2017-01-19T09:59:22.313Z,87.791
2017-01-19T10:02:17.022Z,87.927
2017-01-19T10:05:09.884Z,87.774
2017-01-19T10:08:03.796Z,87.539
2017-01-19T10:10:54.570Z,87.001
2017-01-19T10:13:46.992Z,86.561
2017-01-19T10:16:39.848Z,86.190
2017-01-19T10:19:35.056Z,86.220
2017-01-19T10:22:27.923Z,87.546
2017-01-19T10:25:20.737Z,86.695
2017-01-19T10:28:13.546Z,86.588
2017-01-19T10:31:06.341Z,86.400
2017-01-19T10:33:57.582Z,85.825
2017-01-19T10:36:50.435Z,85.896
2017-01-19T10:39:43.370Z,86.061
2017-01-19T10:42:37.909Z,85.767
2017-01-19T10:45:30.844Z,85.975
2017-01-19T10:48:21.886Z,85.922
2017-01-19T10:51:16.593Z,85.312
2017-01-19T10:54:07.742Z,85.482
2017-01-19T10:57:00.651Z,85.253
2017-01-19T10:59:55.365Z,85.967
2017-01-19T11:02:47.446Z,86.647
2017-01-19T11:05:41.019Z,85.340
2017-01-19T11:08:34.092Z,86.138
2017-01-19T11:11:27.240Z,85.182
2017-01-19T11:14:20.331Z,86.090
2017-01-19T11:17:13.456Z,85.679
2017-01-19T11:20:06.565Z,86.146
2017-01-19T11:23:01.432Z,84.915
2017-01-19T11:25:54.525Z,84.000
2017-01-19T11:28:46.839Z,83.371
2017-01-19T11:34:32.066Z,83.569
2017-01-19T11:37:25.065Z,83.869
2017-01-19T11:40:18.071Z,84.292
2017-01-19T11:43:12.900Z,83.908
2017-01-19T11:46:04.347Z,84.639
2017-01-19T11:48:57.982Z,84.999
2017-01-19T11:51:51.117Z,83.902
2017-01-19T11:54:44.258Z,83.480
2017-01-19T11:57:37.420Z,84.100
2017-01-19T12:00:32.435Z,83.930
2017-01-19T12:03:23.893Z,83.097
2017-01-19T12:06:18.961Z,83.223
2017-01-19T12:09:10.397Z,82.932
2017-01-19T12:12:03.645Z,83.042
2017-01-19T12:14:56.935Z,83.378
2017-01-19T12:17:50.867Z,83.346
2017-01-19T12:20:44.976Z,82.687
2017-01-19T12:23:36.351Z,82.721
2017-01-19T12:26:31.300Z,84.169
2017-01-19T12:29:24.544Z,82.964
2017-01-19T12:32:17.250Z,82.489
2017-01-19T12:35:09.529Z,82.906
2017-01-19T12:38:02.726Z,83.768
2017-01-19T12:40:55.979Z,83.444
2017-01-19T12:43:49.209Z,83.198
2017-01-19T12:46:42.484Z,83.341
2017-01-19T12:49:35.696Z,82.302
2017-01-19T12:52:28.888Z,81.623
2017-01-19T12:55:23.905Z,82.936
2017-01-19T12:58:16.373Z,82.759
2017-01-19T13:01:08.547Z,82.712
2017-01-19T13:04:03.453Z,83.116
2017-01-19T13:06:54.961Z,82.620
2017-01-19T13:09:49.874Z,83.029
2017-01-19T13:12:43.834Z,83.209
2017-01-19T13:15:36.937Z,82.594
2017-01-19T13:18:28.942Z,82.614
2017-01-19T13:21:23.811Z,82.728
2017-01-19T13:24:15.394Z,81.712
2017-01-19T13:27:08.578Z,81.617
2017-01-19T13:30:03.400Z,82.136
2017-01-19T13:32:56.464Z,82.949
2017-01-19T13:35:48.910Z,82.023
2017-01-19T13:38:41.062Z,82.825
2017-01-19T13:41:36.036Z,81.850
2017-01-19T13:44:27.600Z,82.396
2017-01-19T13:47:20.912Z,81.974
2017-01-19T13:50:14.098Z,82.483
2017-01-19T13:53:07.272Z,82.149
2017-01-19T13:56:02.128Z,82.116
2017-01-19T13:58:55.326Z,82.317
2017-01-19T14:01:48.390Z,82.464
2017-01-19T14:04:42.682Z,83.706
2017-01-19T14:07:34.748Z,83.020
2017-01-19T14:10:28.851Z,82.629
2017-01-19T14:13:20.094Z,83.429
2017-01-19T14:19:06.455Z,82.594
2017-01-19T14:21:59.536Z,82.520
2017-01-19T14:24:54.357Z,82.464
2017-01-19T14:27:45.820Z,82.899
2017-01-19T14:33:32.132Z,83.592
2017-01-19T14:36:25.175Z,82.648
2017-01-19T14:39:20.038Z,82.668
2017-01-19T14:42:11.437Z,83.249
2017-01-19T14:45:04.551Z,83.528
2017-01-19T14:47:59.298Z,83.526
2017-01-19T14:50:52.433Z,84.378
2017-01-19T14:53:45.004Z,84.292
2017-01-19T14:56:37.153Z,83.627
2017-01-19T14:59:30.416Z,84.112
2017-01-19T15:02:23.606Z,84.610
2017-01-19T15:05:18.482Z,84.168
2017-01-19T15:08:09.990Z,83.769
2017-01-19T15:11:05.104Z,84.040
2017-01-19T15:13:56.555Z,84.010
2017-01-19T15:16:52.512Z,85.198
2017-01-19T15:19:44.739Z,84.172
2017-01-19T15:22:38.898Z,84.339
2017-01-19T15:25:31.288Z,83.878
2017-01-19T15:28:22.826Z,84.300
2017-01-19T15:31:17.637Z,84.622
2017-01-19T15:34:12.035Z,83.857
2017-01-19T15:37:04.288Z,84.205
2017-01-19T15:39:58.511Z,84.337
2017-01-19T15:42:49.034Z,84.608
2017-01-19T15:45:42.026Z,84.755
2017-01-19T15:48:35.846Z,84.271
2017-01-19T15:51:28.556Z,84.182
2017-01-19T15:54:23.486Z,85.053
2017-01-19T15:57:15.062Z,84.412
2017-01-19T16:00:08.780Z,84.419
2017-01-19T16:03:02.005Z,85.051
2017-01-19T16:05:57.044Z,84.951
2017-01-19T16:11:41.610Z,85.317
2017-01-19T16:14:36.547Z,84.943
2017-01-19T16:17:29.879Z,85.083
2017-01-19T16:23:14.617Z,85.208
2017-01-19T16:26:09.486Z,85.372
2017-01-19T16:29:02.533Z,85.458
2017-01-19T16:31:56.648Z,85.536
2017-01-19T16:34:48.875Z,85.981
2017-01-19T16:37:40.344Z,86.020
2017-01-19T16:40:33.536Z,86.526
2017-01-19T16:43:28.334Z,86.284
2017-01-19T16:46:21.339Z,86.847
2017-01-19T16:49:14.707Z,86.833
2017-01-19T16:52:05.952Z,87.017
2017-01-19T16:54:59.317Z,86.986
2017-01-19T16:57:52.756Z,86.692
2017-01-19T17:00:45.702Z,86.592
2017-01-19T17:03:40.818Z,86.581
2017-01-19T17:06:32.488Z,86.558
2017-01-19T17:12:20.418Z,86.740
2017-01-19T17:15:13.705Z,87.030
2017-01-19T17:18:06.658Z,87.321
2017-01-19T17:21:00.407Z,87.274
2017-01-19T17:23:53.561Z,87.283
2017-01-19T17:26:44.581Z,87.140
2017-01-19T17:32:31.514Z,87.478
2017-01-19T17:35:26.187Z,87.491
2017-01-19T17:38:18.076Z,87.510
2017-01-19T17:41:11.527Z,87.562
2017-01-19T17:44:03.836Z,87.231
2017-01-19T17:46:59.187Z,88.001
2017-01-19T17:55:37.179Z,88.335
2017-01-19T17:58:32.711Z,87.962
2017-01-19T18:01:23.170Z,87.896
2017-01-19T18:04:18.172Z,87.820
2017-01-19T18:07:09.726Z,88.172
2017-01-19T18:10:02.940Z,87.437
2017-01-19T18:12:58.029Z,87.603
2017-01-19T18:15:49.504Z,87.333
2017-01-19T18:18:44.560Z,87.835
2017-01-19T18:21:37.839Z,87.757
2017-01-19T18:24:29.342Z,87.884
2017-01-19T18:27:22.459Z,87.914
2017-01-19T18:33:10.645Z,88.221
2017-01-19T18:36:02.056Z,87.907
2017-01-19T18:38:55.866Z,88.167
2017-01-19T18:41:49.109Z,88.265
2017-01-19T18:44:43.879Z,87.772
2017-01-19T18:47:37.231Z,88.420
2017-01-19T18:50:30.528Z,88.140
2017-01-19T18:53:23.051Z,88.118
2017-01-19T18:56:15.353Z,88.342
2017-01-19T18:59:08.712Z,88.133
2017-01-19T19:02:03.553Z,87.947
2017-01-19T19:04:56.803Z,88.034
2017-01-19T19:07:49.977Z,87.706
2017-01-19T19:10:41.619Z,88.282
2017-01-19T19:13:34.783Z,88.199
2017-01-19T19:16:29.612Z,88.292
2017-01-19T19:19:22.827Z,88.812
2017-01-19T19:22:15.885Z,88.412
2017-01-19T19:25:07.625Z,88.388
2017-01-19T19:30:55.231Z,88.540
2017-01-19T19:33:48.761Z,87.624
2017-01-19T19:36:40.499Z,87.750
2017-01-19T19:39:33.810Z,87.712
2017-01-19T19:42:27.028Z,88.137
2017-01-19T19:45:20.355Z,88.234
2017-01-19T19:48:13.424Z,87.879
2017-01-19T19:51:08.303Z,87.738
2017-01-19T19:53:59.753Z,88.168
2017-01-19T19:56:54.927Z,88.084
2017-01-19T19:59:46.089Z,87.780
2017-01-19T20:02:40.985Z,87.785
2017-01-19T20:05:32.465Z,87.902
2017-01-19T20:08:25.811Z,87.942
2017-01-19T20:11:20.723Z,88.133
2017-01-19T20:14:13.340Z,88.291
2017-01-19T20:17:07.047Z,87.818
2017-01-19T20:19:58.607Z,88.348
2017-01-19T20:22:51.704Z,88.375
2017-01-19T20:25:44.970Z,88.570
2017-01-19T20:28:38.094Z,88.409
2017-01-19T20:31:32.972Z,88.746
2017-01-19T20:34:24.639Z,88.664
2017-01-19T20:37:19.719Z,88.513
2017-01-19T20:40:11.096Z,88.683
2017-01-19T20:43:05.992Z,88.466
2017-01-19T20:45:59.166Z,88.496
2017-01-19T20:48:52.396Z,88.479
2017-01-19T20:51:45.728Z,88.542
2017-01-19T20:54:39.219Z,88.582
2017-01-19T20:57:32.514Z,89.087
2017-01-19T21:00:25.945Z,89.318
2017-01-19T21:03:17.369Z,88.176
2017-01-19T21:06:12.257Z,88.264
2017-01-19T21:09:05.547Z,88.304
2017-01-19T21:11:58.620Z,88.612
2017-01-19T21:14:52.586Z,88.398
2017-01-19T21:17:45.657Z,87.867
2017-01-19T21:20:38.973Z,88.768
2017-01-19T21:23:30.594Z,88.416
2017-01-19T21:26:25.510Z,88.358
2017-01-19T21:29:18.611Z,88.690
2017-01-19T21:32:10.908Z,88.433
2017-01-19T21:35:05.008Z,88.831
2017-01-19T21:37:58.904Z,88.774
2017-01-19T21:40:50.401Z,88.390
2017-01-19T21:43:45.267Z,88.842
2017-01-19T21:46:37.059Z,88.252
2017-01-19T21:49:30.105Z,88.748
2017-01-19T21:52:23.294Z,88.415
2017-01-19T21:55:18.277Z,88.220
2017-01-19T21:58:11.549Z,88.423
2017-01-19T22:01:02.919Z,88.355
2017-01-19T22:03:57.985Z,88.386
2017-01-19T22:06:49.470Z,88.919
2017-01-19T22:09:44.439Z,88.580
2017-01-19T22:12:37.867Z,88.504
2017-01-19T22:15:29.164Z,88.598
2017-01-19T22:18:22.381Z,89.131
2017-01-19T22:21:15.807Z,88.570
2017-01-19T22:24:08.949Z,88.537
2017-01-19T22:27:03.935Z,88.404
2017-01-19T22:29:56.722Z,88.585
2017-01-19T22:32:49.110Z,88.916
2017-01-19T22:35:42.298Z,88.869
2017-01-19T22:38:35.742Z,88.399
2017-01-19T22:41:30.596Z,88.421
2017-01-19T22:44:24.059Z,88.694
2017-01-19T22:47:17.258Z,88.771
2017-01-19T22:50:09.747Z,88.307
2017-01-19T22:53:02.141Z,88.374
2017-01-19T22:55:57.108Z,88.509
2017-01-19T22:58:50.394Z,88.309
2017-01-19T23:01:43.806Z,88.529
2017-01-19T23:04:35.222Z,88.169
2017-01-19T23:07:30.130Z,88.370
2017-01-19T23:10:23.470Z,88.101
2017-01-19T23:13:15.049Z,88.331
2017-01-19T23:16:09.984Z,88.469
2017-01-19T23:19:03.336Z,88.449
2017-01-19T23:21:57.342Z,88.222
2017-01-19T23:24:47.889Z,88.584
2017-01-19T23:27:42.838Z,88.520
2017-01-19T23:30:36.153Z,88.397
2017-01-19T23:33:29.250Z,88.186
2017-01-19T23:36:22.380Z,88.492
2017-01-19T23:39:15.628Z,87.955
2017-01-19T23:42:07.076Z,87.824
2017-01-19T23:45:00.494Z,87.933
2017-01-19T23:47:53.665Z,87.534
2017-01-19T23:50:48.607Z,87.395
2017-01-19T23:53:40.277Z,87.269
2017-01-19T23:56:35.292Z,86.805
2017-01-19T23:59:28.577Z,86.399
